Time;durP1;ratioP1;P1;durP2;ratioP2;P2;SDS_P1;SDS_P2;PMS_P1;PMS_P2;Temp;Humidity;BMP_temperature;BMP_pressure;BME280_temperature;BME280_humidity;BME280_pressure;Samples;Min_cycle;Max_cycle;Signal;HPM_P1;HPM_P2
2022/10/23 00:00:14;;;;;;;16.67;8.05;;;;;;;11.25;100.00;101204.88;5267729;28;20391;-69
2022/10/23 00:02:51;;;;;;;12.65;7.45;;;;;;;11.25;100.00;101208.38;5266476;28;20493;-69
2022/10/23 00:05:22;;;;;;;12.52;6.90;;;;;;;11.37;100.00;101202.16;5268416;28;20506;-69
2022/10/23 00:07:57;;;;;;;14.13;7.13;;;;;;;11.24;100.00;101198.69;5277062;28;20021;-69
2022/10/23 00:10:30;;;;;;;11.27;6.93;;;;;;;11.32;100.00;101190.94;5272011;28;20400;-69
2022/10/23 00:13:02;;;;;;;14.70;7.43;;;;;;;11.36;100.00;101194.25;5277936;28;20222;-68
2022/10/23 00:15:35;;;;;;;16.58;7.45;;;;;;;11.34;100.00;101197.03;5276129;28;20141;-69
2022/10/23 00:18:06;;;;;;;14.40;7.40;;;;;;;11.30;100.00;101197.38;5274943;28;20469;-69
2022/10/23 00:20:37;;;;;;;15.07;8.30;;;;;;;11.33;100.00;101202.47;5276916;28;20052;-68
2022/10/23 00:23:09;;;;;;;10.93;6.97;;;;;;;11.30;100.00;101198.22;5277396;28;20032;-70
2022/10/23 00:25:40;;;;;;;13.05;7.90;;;;;;;11.39;100.00;101204.72;5277079;28;20687;-69
2022/10/23 00:28:11;;;;;;;14.88;7.80;;;;;;;11.34;100.00;101197.03;5277724;28;20051;-68
2022/10/23 00:30:42;;;;;;;12.82;7.20;;;;;;;11.38;100.00;101197.66;5267815;28;20089;-69
2022/10/23 00:33:14;;;;;;;14.35;6.93;;;;;;;11.34;100.00;101209.53;5269418;28;20028;-69
2022/10/23 00:35:45;;;;;;;13.63;7.05;;;;;;;11.37;100.00;101196.81;5273817;28;20517;-69
2022/10/23 00:38:16;;;;;;;15.55;7.95;;;;;;;11.27;100.00;101195.75;5274241;28;20028;-69
2022/10/23 00:40:48;;;;;;;15.25;7.68;;;;;;;11.26;100.00;101194.06;5276428;28;20394;-69
2022/10/23 00:43:22;;;;;;;12.93;6.72;;;;;;;11.32;100.00;101192.78;5271684;28;20426;-69
2022/10/23 00:45:53;;;;;;;17.65;7.50;;;;;;;11.31;100.00;101188.38;5274400;28;20035;-69
2022/10/23 00:48:27;;;;;;;10.45;6.75;;;;;;;11.41;100.00;101183.19;5272123;28;20499;-68
2022/10/23 00:50:58;;;;;;;17.13;7.53;;;;;;;11.32;100.00;101185.59;5273167;28;20032;-69
2022/10/23 00:53:30;;;;;;;15.32;7.85;;;;;;;11.38;100.00;101192.31;5269999;28;20094;-68
2022/10/23 00:56:02;;;;;;;13.93;8.02;;;;;;;11.28;100.00;101188.63;5269996;28;20032;-69
2022/10/23 00:58:33;;;;;;;16.35;7.82;;;;;;;11.45;100.00;101192.69;5271387;28;20382;-69
2022/10/23 01:01:19;;;;;;;11.63;7.72;;;;;;;11.40;100.00;101189.53;5269449;28;20039;-69
2022/10/23 01:03:52;;;;;;;15.52;7.50;;;;;;;11.47;100.00;101188.13;5268609;28;20034;-69
2022/10/23 01:06:36;;;;;;;12.80;7.53;;;;;;;11.38;100.00;101182.47;5276676;28;20111;-69
2022/10/23 01:09:29;;;;;;;15.02;8.63;;;;;;;11.43;100.00;101184.81;5267062;28;20036;-69
2022/10/23 01:12:11;;;;;;;14.15;8.10;;;;;;;11.38;100.00;101185.13;5271735;28;20492;-69
2022/10/23 01:14:53;;;;;;;13.25;7.25;;;;;;;11.34;100.00;101189.00;5269674;28;20078;-69
2022/10/23 01:17:36;;;;;;;13.38;7.88;;;;;;;11.37;100.00;101180.78;5272318;28;20107;-69
2022/10/23 01:20:20;;;;;;;14.90;7.40;;;;;;;11.39;100.00;101169.97;5273947;28;20024;-69
2022/10/23 01:23:21;;;;;;;10.00;7.03;;;;;;;11.34;100.00;101180.16;5273538;28;20036;-69
2022/10/23 01:26:18;;;;;;;16.63;7.70;;;;;;;11.32;100.00;101177.59;5272775;28;20032;-69
2022/10/23 01:29:09;;;;;;;15.25;7.00;;;;;;;11.23;100.00;101170.25;5271828;28;20036;-69
2022/10/23 01:31:55;;;;;;;13.32;7.10;;;;;;;11.27;100.00;101165.53;5265576;28;20028;-69
2022/10/23 01:34:49;;;;;;;10.77;6.25;;;;;;;11.30;100.00;101168.84;5268735;28;20390;-69
2022/10/23 01:37:29;;;;;;;13.98;7.03;;;;;;;11.18;100.00;101156.41;5270113;28;20063;-69
2022/10/23 01:40:04;;;;;;;12.82;6.75;;;;;;;11.12;100.00;101159.50;5271574;28;20024;-69
2022/10/23 01:42:40;;;;;;;13.63;6.90;;;;;;;11.14;100.00;101153.09;5269788;28;20431;-68
2022/10/23 01:45:18;;;;;;;9.18;5.90;;;;;;;11.14;100.00;101147.75;5272276;28;20033;-69
2022/10/23 01:47:49;;;;;;;11.20;6.28;;;;;;;11.13;100.00;101135.38;5267630;28;20032;-69
2022/10/23 01:50:23;;;;;;;11.02;6.03;;;;;;;11.15;100.00;101138.78;5274364;28;20041;-69
2022/10/23 01:52:54;;;;;;;12.05;6.57;;;;;;;11.15;100.00;101129.91;5275117;28;20188;-69
2022/10/23 01:55:26;;;;;;;15.05;6.63;;;;;;;11.09;100.00;101128.56;5270675;28;20028;-69
2022/10/23 01:58:01;;;;;;;9.98;6.22;;;;;;;11.05;100.00;101135.09;5272620;28;20028;-69
2022/10/23 02:00:35;;;;;;;9.57;6.00;;;;;;;11.06;100.00;101127.91;5275031;28;20059;-69
2022/10/23 02:03:08;;;;;;;11.77;6.50;;;;;;;11.07;100.00;101135.81;5259470;28;20033;-69
2022/10/23 02:05:39;;;;;;;10.88;5.82;;;;;;;11.08;100.00;101136.66;5271239;28;20025;-68
2022/10/23 02:08:11;;;;;;;10.38;5.93;;;;;;;11.07;100.00;101130.47;5271985;28;20032;-68
2022/10/23 02:10:56;;;;;;;10.10;6.40;;;;;;;10.99;100.00;101132.88;5275033;28;20485;-69
2022/10/23 02:13:31;;;;;;;;;;;;;;;11.10;100.00;101134.72;5274376;28;20028;-69
2022/10/23 02:16:22;;;;;;;10.20;6.30;;;;;;;11.00;100.00;101131.91;5280763;28;19951;-69
2022/10/23 02:19:03;;;;;;;12.80;6.93;;;;;;;10.97;100.00;101129.47;5261768;28;20032;-69
2022/10/23 02:22:08;;;;;;;13.07;7.05;;;;;;;10.95;100.00;101129.56;5271814;28;20031;-69
2022/10/23 02:25:17;;;;;;;10.30;7.00;;;;;;;10.94;100.00;101127.84;5267406;28;20456;-69
2022/10/23 02:27:55;;;;;;;10.88;6.40;;;;;;;10.99;100.00;101132.88;5186541;28;20039;-69
2022/10/23 02:30:28;;;;;;;11.60;6.47;;;;;;;11.03;100.00;101114.81;5264209;28;20554;-69
2022/10/23 02:33:01;;;;;;;13.07;7.05;;;;;;;10.99;100.00;101115.03;5279760;28;20043;-69
2022/10/23 02:35:33;;;;;;;13.63;6.97;;;;;;;10.97;100.00;101108.13;5276743;28;20470;-69
2022/10/23 02:38:43;;;;;;;11.85;7.07;;;;;;;11.02;100.00;101105.94;5274999;28;20032;-69
2022/10/23 02:41:46;;;;;;;11.15;6.72;;;;;;;11.11;100.00;101099.06;5274790;28;20093;-69
2022/10/23 02:44:37;;;;;;;14.65;7.60;;;;;;;11.02;100.00;101083.72;5278534;28;20553;-68
2022/10/23 02:47:31;;;;;;;13.07;6.97;;;;;;;11.00;100.00;101073.16;5272951;28;20033;-68
2022/10/23 02:50:42;;;;;;;14.55;7.05;;;;;;;11.03;100.00;101070.28;5274173;28;20394;-68
2022/10/23 02:53:27;;;;;;;12.18;7.53;;;;;;;11.01;100.00;101057.97;5270456;28;20470;-69
2022/10/23 02:56:15;;;;;;;11.20;7.13;;;;;;;11.09;100.00;101058.28;5275486;28;20171;-68
2022/10/23 02:59:03;;;;;;;14.85;7.05;;;;;;;11.04;100.00;101047.09;5271565;28;20035;-69
2022/10/23 03:01:40;;;;;;;13.82;7.20;;;;;;;11.02;100.00;101041.84;5271556;28;20119;-69
2022/10/23 03:04:13;;;;;;;13.18;7.25;;;;;;;11.03;100.00;101037.38;5268088;28;20036;-69
2022/10/23 03:06:45;;;;;;;16.10;8.27;;;;;;;11.06;100.00;101037.97;5274113;28;20043;-69
2022/10/23 03:09:17;;;;;;;16.27;7.85;;;;;;;11.03;100.00;101032.88;5273795;28;20414;-68
2022/10/23 03:11:48;;;;;;;11.85;7.30;;;;;;;11.15;100.00;101031.09;5273716;28;20357;-69
2022/10/23 03:14:19;;;;;;;12.45;7.18;;;;;;;11.08;100.00;101027.19;5274378;28;20044;-69
2022/10/23 03:16:51;;;;;;;12.25;7.80;;;;;;;11.02;100.00;101030.31;5264636;28;20036;-69
2022/10/23 03:19:22;;;;;;;11.80;7.38;;;;;;;11.14;100.00;101024.91;5278306;28;20056;-69
2022/10/23 03:21:53;;;;;;;11.05;8.10;;;;;;;11.07;100.00;101023.69;5278008;28;20032;-69
2022/10/23 03:24:24;;;;;;;11.85;7.18;;;;;;;11.12;100.00;101018.84;5270255;28;20036;-69
2022/10/23 03:26:56;;;;;;;13.90;7.85;;;;;;;11.15;100.00;101017.75;5275969;28;20036;-69
2022/10/23 03:29:27;;;;;;;10.52;7.10;;;;;;;11.18;100.00;101014.84;5278569;28;20032;-69
2022/10/23 03:31:58;;;;;;;14.68;7.88;;;;;;;11.12;100.00;101015.31;5276297;28;20556;-69
2022/10/23 03:34:29;;;;;;;15.88;7.38;;;;;;;11.22;100.00;101020.78;5269364;28;20029;-69
2022/10/23 03:37:01;;;;;;;14.65;7.47;;;;;;;11.13;100.00;101009.84;5278820;28;20111;-69
2022/10/23 03:39:32;;;;;;;13.15;7.70;;;;;;;11.17;100.00;101003.31;5277989;28;20764;-68
2022/10/23 03:42:03;;;;;;;13.00;7.20;;;;;;;11.19;100.00;100996.03;5269427;28;20554;-69
2022/10/23 03:44:34;;;;;;;14.85;7.82;;;;;;;11.23;100.00;100996.63;5274089;28;20028;-69
2022/10/23 03:47:08;;;;;;;14.75;7.90;;;;;;;11.19;100.00;100989.84;5271605;28;20025;-69
2022/10/23 03:49:39;;;;;;;14.60;8.23;;;;;;;11.18;100.00;100994.34;5277609;28;20044;-69
2022/10/23 03:52:11;;;;;;;13.32;7.65;;;;;;;11.27;100.00;100990.09;5277169;28;20078;-69
2022/10/23 03:54:42;;;;;;;11.88;8.13;;;;;;;11.37;100.00;100982.22;5272377;28;20594;-69
2022/10/23 03:57:13;;;;;;;11.50;7.80;;;;;;;11.33;100.00;100986.97;5269283;28;20036;-69
2022/10/23 03:59:45;;;;;;;13.00;7.82;;;;;;;11.25;100.00;100983.19;5277828;28;20485;-69
2022/10/23 04:02:16;;;;;;;15.32;7.80;;;;;;;11.33;100.00;100967.41;5276267;28;20043;-69
2022/10/23 04:04:48;;;;;;;15.57;8.00;;;;;;;11.32;100.00;100963.88;5273606;28;20067;-68
2022/10/23 04:07:19;;;;;;;13.77;8.30;;;;;;;11.29;100.00;100963.25;5271380;28;20039;-69
2022/10/23 04:09:50;;;;;;;13.98;8.05;;;;;;;11.36;100.00;100960.00;5273808;28;20505;-69
2022/10/23 04:12:22;;;;;;;13.50;7.75;;;;;;;11.38;100.00;100943.84;5274695;28;20398;-69
2022/10/23 04:14:53;;;;;;;13.52;8.00;;;;;;;11.33;100.00;100951.38;5270304;28;20111;-69
2022/10/23 04:17:24;;;;;;;12.45;6.90;;;;;;;11.27;100.00;100955.38;5275265;28;20505;-69
2022/10/23 04:19:55;;;;;;;9.98;6.72;;;;;;;11.33;100.00;100946.03;5263572;28;20502;-69
2022/10/23 04:22:27;;;;;;;14.70;7.07;;;;;;;11.32;100.00;100947.84;5274211;28;20471;-69
2022/10/23 04:24:58;;;;;;;9.57;6.78;;;;;;;11.36;100.00;100956.47;5270490;28;20028;-69
2022/10/23 04:27:29;;;;;;;11.88;7.25;;;;;;;11.37;100.00;100963.50;5272429;28;20501;-69
2022/10/23 04:30:02;;;;;;;11.65;6.80;;;;;;;11.36;100.00;100960.00;5268054;28;20395;-69
2022/10/23 04:32:34;;;;;;;11.48;7.15;;;;;;;11.24;100.00;100957.41;5273412;28;20021;-69
2022/10/23 04:35:06;;;;;;;10.68;6.65;;;;;;;11.26;100.00;100944.81;5274045;28;20050;-69
2022/10/23 04:37:37;;;;;;;14.60;7.32;;;;;;;11.21;100.00;100961.19;5271481;28;20594;-69
2022/10/23 04:40:08;;;;;;;12.80;7.05;;;;;;;11.21;100.00;100958.53;5269508;28;20071;-69
2022/10/23 04:42:40;;;;;;;11.38;6.90;;;;;;;11.16;100.00;100948.22;5265730;28;20021;-69
2022/10/23 04:45:11;;;;;;;11.60;6.95;;;;;;;11.20;100.00;100951.50;5274844;28;20485;-68
2022/10/23 04:47:42;;;;;;;11.98;6.68;;;;;;;11.31;100.00;100947.97;5270172;28;20034;-69
2022/10/23 04:50:14;;;;;;;15.10;6.90;;;;;;;11.19;100.00;100944.44;5267737;28;20048;-69
2022/10/23 04:52:46;;;;;;;12.55;6.88;;;;;;;11.15;100.00;100943.81;5272281;28;20036;-69
2022/10/23 04:55:17;;;;;;;15.52;7.30;;;;;;;11.17;100.00;100939.22;5266994;28;20171;-69
2022/10/23 04:57:48;;;;;;;13.48;6.65;;;;;;;11.25;100.00;100940.44;5272447;28;20031;-69
2022/10/23 05:00:19;;;;;;;16.08;6.88;;;;;;;11.13;100.00;100934.22;5276439;28;20089;-69
2022/10/23 05:02:51;;;;;;;15.18;7.00;;;;;;;11.13;100.00;100931.56;5273467;28;20478;-69
2022/10/23 05:05:23;;;;;;;10.95;6.50;;;;;;;11.10;100.00;100935.34;5274660;28;20505;-69
2022/10/23 05:07:54;;;;;;;10.70;6.47;;;;;;;11.18;100.00;100940.94;5272745;28;20056;-69
2022/10/23 05:10:25;;;;;;;10.52;7.20;;;;;;;11.12;100.00;100929.84;5264870;28;20024;-69
2022/10/23 05:12:57;;;;;;;9.90;6.80;;;;;;;11.09;100.00;100935.44;5277398;28;20024;-69
2022/10/23 05:15:28;;;;;;;12.13;6.93;;;;;;;11.11;100.00;100928.16;5276113;28;20036;-69
2022/10/23 05:18:08;;;;;;;9.77;6.35;;;;;;;11.15;100.00;100934.97;5265055;28;20047;-69
2022/10/23 05:20:39;;;;;;;11.18;6.97;;;;;;;11.08;100.00;100917.72;5273635;28;20055;-69
2022/10/23 05:23:15;;;;;;;15.52;7.18;;;;;;;11.10;100.00;100921.97;5263764;28;20111;-69
2022/10/23 05:25:46;;;;;;;16.50;7.50;;;;;;;11.12;100.00;100922.72;5275638;28;20390;-69
2022/10/23 05:28:17;;;;;;;13.80;6.85;;;;;;;11.09;100.00;100914.94;5265625;28;20124;-69
2022/10/23 05:30:49;;;;;;;12.68;7.20;;;;;;;11.17;100.00;100922.34;5275217;28;20093;-69
2022/10/23 05:33:20;;;;;;;12.20;6.80;;;;;;;11.14;100.00;100914.56;5270243;28;20024;-69
2022/10/23 05:35:52;;;;;;;10.35;6.80;;;;;;;11.21;100.00;100910.44;5272942;28;20403;-69
2022/10/23 05:38:25;;;;;;;12.88;6.78;;;;;;;11.22;100.00;100905.94;5270746;28;20028;-69
2022/10/23 05:40:56;;;;;;;16.80;6.90;;;;;;;11.13;100.00;100910.19;5262669;28;20032;-69
2022/10/23 05:43:30;;;;;;;13.40;6.80;;;;;;;11.24;100.00;100910.22;5274328;28;20037;-68
2022/10/23 05:46:05;;;;;;;11.27;6.13;;;;;;;11.18;100.00;100898.19;5274461;28;20035;-69
2022/10/23 05:48:36;;;;;;;10.13;6.05;;;;;;;11.24;100.00;100902.22;5270801;28;20427;-68
2022/10/23 05:51:10;;;;;;;11.13;5.72;;;;;;;11.28;100.00;100905.50;5274118;28;20032;-69
2022/10/23 05:53:41;;;;;;;12.77;6.40;;;;;;;11.26;100.00;100899.41;5272318;28;20028;-69
2022/10/23 05:56:12;;;;;;;9.95;6.00;;;;;;;11.24;100.00;100901.34;5271493;28;20033;-69
2022/10/23 05:58:44;;;;;;;8.25;5.75;;;;;;;11.16;100.00;100902.81;5274877;28;20032;-69
2022/10/23 06:01:17;;;;;;;9.32;5.70;;;;;;;11.18;100.00;100898.19;5270295;28;20024;-69
2022/10/23 06:03:50;;;;;;;10.60;5.85;;;;;;;11.12;100.00;100888.00;5263778;28;20021;-71
2022/10/23 06:06:21;;;;;;;10.35;5.97;;;;;;;11.36;100.00;100884.34;5275831;28;20048;-69
2022/10/23 06:08:53;;;;;;;10.75;6.18;;;;;;;11.22;100.00;100882.78;5271890;28;20024;-69
2022/10/23 06:11:24;;;;;;;11.85;6.45;;;;;;;11.29;100.00;100889.31;5272296;28;20411;-69
2022/10/23 06:13:55;;;;;;;11.68;6.13;;;;;;;11.29;100.00;100888.47;5275339;28;20059;-69
2022/10/23 06:16:27;;;;;;;11.23;6.13;;;;;;;11.29;100.00;100877.78;5275068;28;20029;-69
2022/10/23 06:18:59;;;;;;;10.85;6.00;;;;;;;11.28;100.00;100873.44;5273788;28;20528;-69
2022/10/23 06:21:30;;;;;;;10.00;5.78;;;;;;;11.21;100.00;100881.06;5270534;28;20048;-69
2022/10/23 06:24:02;;;;;;;9.77;5.35;;;;;;;11.32;100.00;100877.56;5273659;28;20037;-68
2022/10/23 06:26:34;;;;;;;7.25;5.90;;;;;;;11.32;100.00;100873.06;5270297;28;20107;-69
2022/10/23 06:29:05;;;;;;;14.32;6.45;;;;;;;11.26;100.00;100872.72;5274572;28;20119;-69
2022/10/23 06:31:36;;;;;;;10.55;5.82;;;;;;;11.34;100.00;100867.59;5276197;28;20430;-69
2022/10/23 06:34:10;;;;;;;11.43;6.78;;;;;;;11.36;100.00;100863.81;5270809;28;20462;-68
2022/10/23 06:36:41;;;;;;;13.13;8.20;;;;;;;11.36;100.00;100858.47;5275362;28;20451;-69
2022/10/23 06:39:13;;;;;;;12.15;6.63;;;;;;;11.39;100.00;100860.09;5266631;28;20115;-69
2022/10/23 06:41:44;;;;;;;10.07;6.75;;;;;;;11.44;100.00;100855.19;5266442;28;20070;-69
2022/10/23 06:44:15;;;;;;;11.05;6.05;;;;;;;11.55;100.00;100857.88;5266760;28;20051;-68
2022/10/23 06:46:47;;;;;;;11.15;6.15;;;;;;;11.53;100.00;100845.59;5273745;28;20033;-69
2022/10/23 06:49:18;;;;;;;10.82;6.65;;;;;;;11.57;100.00;100837.22;5273291;28;20040;-68
2022/10/23 06:51:49;;;;;;;19.73;6.78;;;;;;;11.55;100.00;100836.50;5275933;28;20025;-69
2022/10/23 06:54:21;;;;;;;12.98;6.32;;;;;;;11.57;100.00;100839.88;5274662;28;20075;-68
2022/10/23 06:56:52;;;;;;;10.50;5.80;;;;;;;11.61;100.00;100842.31;5265805;28;20028;-69
2022/10/23 06:59:23;;;;;;;11.30;6.20;;;;;;;11.58;100.00;100841.59;5265839;28;20111;-69
2022/10/23 07:01:54;;;;;;;8.23;5.53;;;;;;;11.62;100.00;100834.19;5269354;28;20150;-68
2022/10/23 07:04:26;;;;;;;8.60;5.15;;;;;;;11.73;100.00;100838.63;5266523;28;20108;-69
2022/10/23 07:06:57;;;;;;;10.57;6.43;;;;;;;11.77;100.00;100851.66;5272975;28;20055;-69
2022/10/23 07:09:28;;;;;;;8.88;5.70;;;;;;;11.82;100.00;100847.75;5265913;28;20029;-69
2022/10/23 07:12:00;;;;;;;11.10;6.90;;;;;;;11.72;100.00;100847.66;5273418;28;20032;-69
2022/10/23 07:14:31;;;;;;;12.88;7.85;;;;;;;11.81;100.00;100844.19;5272191;28;20028;-69
2022/10/23 07:17:02;;;;;;;10.10;6.93;;;;;;;11.75;100.00;100834.88;5275953;28;20029;-69
2022/10/23 07:19:33;;;;;;;9.15;5.50;;;;;;;11.87;100.00;100835.69;5272893;28;20183;-69
2022/10/23 07:22:05;;;;;;;8.73;5.15;;;;;;;11.83;100.00;100830.72;5270781;28;20109;-69
2022/10/23 07:24:37;;;;;;;9.60;5.00;;;;;;;11.93;100.00;100826.34;5277391;28;20036;-69
2022/10/23 07:27:08;;;;;;;9.07;4.57;;;;;;;11.95;100.00;100827.91;5275149;28;20029;-69
2022/10/23 07:29:40;;;;;;;11.30;5.70;;;;;;;11.94;100.00;100820.84;5269474;28;20465;-69
2022/10/23 07:32:12;;;;;;;9.18;5.10;;;;;;;11.94;100.00;100814.66;5273004;28;20394;-69
2022/10/23 07:34:43;;;;;;;11.48;5.53;;;;;;;12.00;100.00;100816.00;5277167;28;20043;-68
2022/10/23 07:37:14;;;;;;;9.90;5.30;;;;;;;12.04;100.00;100817.44;5269798;28;20077;-69
2022/10/23 07:39:46;;;;;;;14.13;5.63;;;;;;;12.10;100.00;100822.25;5276778;28;20025;-69
2022/10/23 07:42:17;;;;;;;9.40;5.20;;;;;;;12.11;100.00;100808.75;5277901;28;20142;-69
2022/10/23 07:44:48;;;;;;;10.48;4.78;;;;;;;12.19;100.00;100813.47;5272010;28;20032;-69
2022/10/23 07:47:20;;;;;;;8.45;4.70;;;;;;;12.21;100.00;100822.22;5276206;28;20016;-69
2022/10/23 07:49:51;;;;;;;8.82;5.05;;;;;;;12.32;100.00;100808.78;5274174;28;20049;-69
2022/10/23 07:52:22;;;;;;;9.23;4.70;;;;;;;12.25;100.00;100804.09;5273931;28;20035;-69
2022/10/23 07:54:54;;;;;;;9.52;5.05;;;;;;;12.31;100.00;100801.75;5279630;28;20051;-69
2022/10/23 07:57:25;;;;;;;11.45;5.00;;;;;;;12.46;100.00;100814.78;5275026;28;20025;-69
2022/10/23 07:59:56;;;;;;;13.00;5.00;;;;;;;12.44;100.00;100804.22;5270517;28;20474;-68
2022/10/23 08:02:27;;;;;;;11.23;5.30;;;;;;;12.49;100.00;100806.50;5269384;28;20039;-69
2022/10/23 08:04:59;;;;;;;12.13;5.30;;;;;;;12.50;100.00;100801.03;5277273;28;20035;-70
2022/10/23 08:07:30;;;;;;;8.55;5.00;;;;;;;12.50;100.00;100800.16;5276619;28;20086;-69
2022/10/23 08:10:02;;;;;;;10.85;5.43;;;;;;;12.60;100.00;100805.59;5275589;28;20032;-69
2022/10/23 08:12:33;;;;;;;13.93;5.53;;;;;;;12.60;100.00;100801.09;5276206;28;20028;-69
2022/10/23 08:15:05;;;;;;;10.52;5.07;;;;;;;12.63;100.00;100802.66;5271863;28;20021;-69
2022/10/23 08:17:38;;;;;;;10.07;5.13;;;;;;;12.66;100.00;100800.56;5269259;28;20032;-69
2022/10/23 08:20:09;;;;;;;10.98;5.93;;;;;;;12.75;100.00;100802.44;5269955;28;20412;-68
2022/10/23 08:22:41;;;;;;;10.13;5.13;;;;;;;12.81;100.00;100798.41;5272236;28;20065;-69
2022/10/23 08:25:12;;;;;;;8.98;5.50;;;;;;;12.80;100.00;100798.53;5278553;28;20041;-69
2022/10/23 08:27:43;;;;;;;9.32;5.35;;;;;;;12.92;100.00;100792.97;5275815;28;20083;-69
2022/10/23 08:30:15;;;;;;;9.65;5.38;;;;;;;12.97;100.00;100787.19;5272348;28;20028;-69
2022/10/23 08:32:46;;;;;;;9.13;5.25;;;;;;;13.01;100.00;100793.13;5270421;28;20128;-69
2022/10/23 08:35:17;;;;;;;8.13;5.05;;;;;;;12.98;100.00;100786.19;5272484;28;20040;-69
2022/10/23 08:37:48;;;;;;;10.30;5.05;;;;;;;13.04;100.00;100780.31;5274618;28;20029;-69
2022/10/23 08:40:24;;;;;;;9.65;5.22;;;;;;;13.03;100.00;100785.81;5276004;28;20021;-69
2022/10/23 08:43:11;;;;;;;13.23;5.88;;;;;;;13.11;100.00;100778.78;5273333;28;20410;-69
2022/10/23 08:45:47;;;;;;;8.52;5.13;;;;;;;13.07;100.00;100774.66;5274044;28;20021;-68
2022/10/23 08:48:30;;;;;;;12.27;5.22;;;;;;;13.13;100.00;100776.84;5276189;28;20403;-69
2022/10/23 08:51:12;;;;;;;7.95;5.03;;;;;;;13.17;100.00;100771.19;5270356;28;20032;-69
2022/10/23 08:54:05;;;;;;;9.02;5.10;;;;;;;13.29;100.00;100772.78;5269493;28;20032;-68
2022/10/23 08:56:40;;;;;;;8.30;5.18;;;;;;;13.33;100.00;100767.03;5276868;28;20140;-69
2022/10/23 08:59:18;;;;;;;7.90;5.00;;;;;;;13.34;100.00;100767.88;5273058;28;20017;-68
2022/10/23 09:02:11;;;;;;;9.00;5.30;;;;;;;13.37;100.00;100764.09;5272123;28;20471;-69
2022/10/23 09:04:46;;;;;;;9.93;4.43;;;;;;;13.47;100.00;100757.75;5276315;28;20035;-68
2022/10/23 09:07:38;;;;;;;9.20;4.65;;;;;;;13.37;100.00;100756.91;5271399;28;20036;-69
2022/10/23 09:10:19;;;;;;;8.18;4.20;;;;;;;13.45;100.00;100745.50;5272319;28;20516;-70
2022/10/23 09:12:50;;;;;;;9.25;4.50;;;;;;;13.47;100.00;100744.34;5268267;28;20036;-69
2022/10/23 09:15:34;;;;;;;9.68;5.15;;;;;;;13.53;100.00;100746.47;5275966;28;20043;-69
2022/10/23 09:18:14;;;;;;;9.63;4.93;;;;;;;13.67;100.00;100744.38;5264007;28;20032;-70
2022/10/23 09:20:46;;;;;;;9.80;4.85;;;;;;;13.64;100.00;100737.47;5268696;28;20028;-69
2022/10/23 09:23:20;;;;;;;10.30;4.82;;;;;;;13.65;100.00;100736.50;5275091;28;20024;-70
2022/10/23 09:25:55;;;;;;;10.35;4.78;;;;;;;13.78;100.00;100727.31;5275853;28;20036;-70
2022/10/23 09:28:31;;;;;;;6.88;4.30;;;;;;;13.72;100.00;100728.72;5275872;28;20032;-70
2022/10/23 09:31:06;;;;;;;8.98;4.93;;;;;;;13.82;100.00;100723.34;5269859;28;20033;-70
2022/10/23 09:33:39;;;;;;;7.22;4.03;;;;;;;13.85;100.00;100723.09;5272767;28;20032;-70
2022/10/23 09:36:12;;;;;;;12.15;4.50;;;;;;;13.96;100.00;100700.59;5264932;28;20116;-69
2022/10/23 09:38:52;;;;;;;10.90;4.70;;;;;;;13.93;100.00;100697.22;5249322;28;20025;-68
2022/10/23 09:41:41;;;;;;;8.60;4.53;;;;;;;13.99;100.00;100693.13;5264895;28;20028;-69
2022/10/23 09:44:18;;;;;;;6.78;3.97;;;;;;;14.04;100.00;100692.72;5271012;28;20288;-70
2022/10/23 09:46:52;;;;;;;8.55;4.68;;;;;;;14.00;100.00;100699.31;5272892;28;20028;-70
2022/10/23 09:49:32;;;;;;;10.57;5.32;;;;;;;14.07;100.00;100697.78;5267574;28;20049;-70
2022/10/23 09:52:07;;;;;;;7.72;4.93;;;;;;;14.07;100.00;100698.59;5268754;28;20040;-70
2022/10/23 09:54:45;;;;;;;9.35;4.90;;;;;;;14.11;100.00;100696.50;5269704;28;20036;-69
2022/10/23 09:57:37;;;;;;;7.93;4.15;;;;;;;14.16;100.00;100691.53;5274812;28;20032;-69
2022/10/23 10:00:21;;;;;;;7.07;3.70;;;;;;;14.24;100.00;100680.09;5266930;28;20021;-70
2022/10/23 10:03:18;;;;;;;8.32;4.05;;;;;;;14.33;100.00;100673.84;5261639;28;20037;-70
2022/10/23 10:06:03;;;;;;;9.73;3.80;;;;;;;14.38;100.00;100657.28;5269948;28;20033;-70
2022/10/23 10:08:49;;;;;;;8.45;3.60;;;;;;;14.32;100.00;100656.03;5274660;28;20368;-69
2022/10/23 10:11:48;;;;;;;8.18;3.72;;;;;;;14.39;100.00;100659.00;5274208;28;20025;-69
2022/10/23 10:14:42;;;;;;;6.82;3.65;;;;;;;14.42;100.00;100640.78;5274289;28;20139;-70
2022/10/23 10:17:19;;;;;;;9.68;3.65;;;;;;;14.44;100.00;100638.78;5275710;28;20029;-70
2022/10/23 10:20:11;;;;;;;9.18;4.32;;;;;;;14.49;100.00;100641.00;5250181;28;20077;-70
2022/10/23 10:22:58;;;;;;;6.57;3.60;;;;;;;14.52;100.00;100625.44;5270590;28;20028;-69
2022/10/23 10:25:51;;;;;;;9.60;4.00;;;;;;;14.59;100.00;100624.88;5274051;28;20028;-70
2022/10/23 10:28:43;;;;;;;6.68;4.18;;;;;;;14.55;100.00;100628.84;5266764;28;20043;-69
2022/10/23 10:31:27;;;;;;;12.77;4.28;;;;;;;14.61;100.00;100636.31;5266529;28;20028;-70
2022/10/23 10:34:21;;;;;;;7.28;4.07;;;;;;;14.65;100.00;100641.25;5272283;28;20093;-70
2022/10/23 10:37:11;;;;;;;8.88;3.63;;;;;;;14.72;100.00;100635.28;5269162;28;20078;-70
2022/10/23 10:39:54;;;;;;;6.82;3.45;;;;;;;14.91;100.00;100632.47;5269896;28;20082;-69
2022/10/23 10:42:44;;;;;;;6.88;3.50;;;;;;;14.92;100.00;100623.44;5263341;28;20035;-70
2022/10/23 10:45:25;;;;;;;8.65;3.60;;;;;;;14.95;100.00;100617.75;5272116;28;20039;-69
2022/10/23 10:48:27;;;;;;;7.72;3.83;;;;;;;15.00;100.00;100623.53;5269180;28;20482;-70
2022/10/23 10:51:06;;;;;;;7.70;3.95;;;;;;;15.05;100.00;100609.63;5271798;28;20045;-69
2022/10/23 10:54:05;;;;;;;9.07;3.80;;;;;;;15.17;100.00;100599.47;5278219;28;20083;-69
2022/10/23 10:56:40;;;;;;;7.70;3.72;;;;;;;15.21;100.00;100609.78;5277774;28;20155;-69
2022/10/23 10:59:30;;;;;;;8.63;4.07;;;;;;;15.28;100.00;100588.50;5279162;28;20035;-70
2022/10/23 11:02:18;;;;;;;8.25;4.00;;;;;;;15.51;100.00;100593.41;5263729;28;20143;-70
2022/10/23 11:05:13;;;;;;;9.13;4.45;;;;;;;15.45;100.00;100602.94;5272360;28;20462;-69
2022/10/23 11:08:14;;;;;;;6.25;3.40;;;;;;;15.54;100.00;100598.50;5273990;28;20021;-70
2022/10/23 11:10:49;;;;;;;12.10;3.90;;;;;;;15.73;100.00;100592.06;5275905;28;20123;-70
2022/10/23 11:13:27;;;;;;;9.40;3.67;;;;;;;15.66;100.00;100581.94;5278922;28;20035;-69
2022/10/23 11:16:04;;;;;;;7.85;3.45;;;;;;;15.75;100.00;100595.50;5268530;28;20032;-69
2022/10/23 11:18:39;;;;;;;7.53;3.10;;;;;;;15.83;100.00;100584.78;5278433;28;20115;-69
2022/10/23 11:21:33;;;;;;;8.18;3.55;;;;;;;15.83;100.00;100593.69;5279394;28;20033;-70
2022/10/23 11:24:32;;;;;;;6.80;3.38;;;;;;;15.91;100.00;100581.28;5275374;28;20036;-69
2022/10/23 11:27:33;;;;;;;7.03;2.75;;;;;;;15.95;100.00;100571.91;5269272;28;20062;-69
2022/10/23 11:30:22;;;;;;;7.32;3.20;;;;;;;16.10;100.00;100570.28;5271387;28;20056;-70
2022/10/23 11:33:15;;;;;;;10.95;3.40;;;;;;;16.15;100.00;100562.59;5271255;28;20043;-69
2022/10/23 11:36:05;;;;;;;5.65;3.30;;;;;;;16.12;100.00;100556.69;5251583;28;20036;-70
2022/10/23 11:38:39;;;;;;;6.18;3.42;;;;;;;16.18;100.00;100538.03;5265643;28;20040;-69
2022/10/23 11:41:21;;;;;;;7.15;3.42;;;;;;;16.26;100.00;100539.91;5273815;28;20508;-70
2022/10/23 11:44:03;;;;;;;6.47;3.20;;;;;;;16.27;100.00;100538.91;5274072;28;20029;-70
2022/10/23 11:46:37;;;;;;;6.85;3.20;;;;;;;16.29;100.00;100528.81;5276827;28;20040;-69
2022/10/23 11:49:19;;;;;;;6.28;3.25;;;;;;;16.32;100.00;100523.13;5272127;28;20087;-70
2022/10/23 11:52:03;;;;;;;7.68;2.80;;;;;;;16.40;100.00;100514.25;5275620;28;20040;-70
2022/10/23 11:54:35;;;;;;;6.60;2.85;;;;;;;16.45;100.00;100522.66;5271473;28;20029;-70